Time;durP1;ratioP1;P1;durP2;ratioP2;P2;SDS_P1;SDS_P2;PMS_P1;PMS_P2;Temp;Humidity;BMP_temperature;BMP_pressure;BME280_temperature;BME280_humidity;BME280_pressure;Samples;Min_cycle;Max_cycle;Signal;HPM_P1;HPM_P2
2022/12/20 00:01:43;;;;;;;4.85;2.63;;;;;;;12.66;61.69;100274.78;6185652;23;20033;-61
2022/12/20 00:04:11;;;;;;;4.32;2.72;;;;;;;12.59;61.10;100263.28;6185807;23;20422;-61
2022/12/20 00:06:40;;;;;;;4.32;2.60;;;;;;;12.65;61.48;100269.53;6186131;23;20292;-61
2022/12/20 00:09:08;;;;;;;3.42;2.28;;;;;;;12.72;60.84;100258.66;6184189;23;20348;-60
2022/12/20 00:11:39;;;;;;;7.00;2.55;;;;;;;12.67;61.22;100248.47;6186302;23;20025;-61
2022/12/20 00:14:06;;;;;;;3.63;2.45;;;;;;;12.60;61.10;100264.94;6185628;23;20029;-61
2022/12/20 00:16:35;;;;;;;3.25;2.40;;;;;;;12.59;60.76;100258.50;6185985;23;20032;-61
2022/12/20 00:19:06;;;;;;;5.03;2.65;;;;;;;12.72;60.73;100272.63;6185226;23;20029;-60
2022/12/20 00:21:35;;;;;;;4.10;2.55;;;;;;;12.60;61.18;100248.19;6185321;23;20025;-61
2022/12/20 00:24:03;;;;;;;2.90;2.25;;;;;;;12.68;60.80;100250.13;6185472;23;20025;-61
2022/12/20 00:26:33;;;;;;;4.88;2.65;;;;;;;12.85;60.21;100252.03;6185155;23;20032;-61
2022/12/20 00:29:01;;;;;;;4.35;2.67;;;;;;;12.88;59.88;100247.75;6185764;23;20036;-61
2022/12/20 00:31:30;;;;;;;4.50;2.53;;;;;;;12.86;59.85;100244.47;6185777;23;20025;-59
2022/12/20 00:33:59;;;;;;;3.08;2.30;;;;;;;12.87;59.93;100249.72;6184249;23;20029;-61
2022/12/20 00:36:29;;;;;;;3.50;2.40;;;;;;;13.00;60.40;100233.88;6185221;23;20025;-61
2022/12/20 00:38:57;;;;;;;3.85;2.22;;;;;;;12.87;59.91;100229.31;6184371;23;20029;-60
2022/12/20 00:41:27;;;;;;;4.38;2.47;;;;;;;12.97;59.94;100224.16;6185878;23;20025;-61
2022/12/20 00:43:55;;;;;;;3.80;2.40;;;;;;;13.08;59.76;100215.41;6185266;23;20032;-61
2022/12/20 00:46:23;;;;;;;2.45;1.75;;;;;;;13.02;59.14;100213.94;6185945;23;20028;-61
2022/12/20 00:48:51;;;;;;;2.50;1.73;;;;;;;12.96;59.39;100205.75;6185482;23;20035;-61
2022/12/20 00:51:20;;;;;;;3.80;2.20;;;;;;;13.00;59.94;100201.13;6185519;23;20025;-60
2022/12/20 00:53:49;;;;;;;;;;;;;;;12.97;60.37;100195.41;6185150;23;20032;-60
2022/12/20 00:56:16;;;;;;;3.47;2.08;;;;;;;13.06;60.04;100198.97;6185066;23;19916;-60
2022/12/20 00:58:44;;;;;;;3.63;2.13;;;;;;;12.94;60.43;100190.50;6185333;23;20032;-61
2022/12/20 01:01:17;;;;;;;3.00;2.03;;;;;;;12.99;59.92;100226.63;6185428;23;20029;-61
2022/12/20 01:03:45;;;;;;;4.55;1.85;;;;;;;13.01;60.33;100190.78;6184136;23;20029;-61
2022/12/20 01:06:12;;;;;;;3.90;2.30;;;;;;;12.95;59.61;100180.94;6184993;23;20028;-60
2022/12/20 01:08:39;;;;;;;3.67;2.40;;;;;;;13.09;58.97;100180.69;6184599;23;20079;-61
2022/12/20 01:11:11;;;;;;;2.88;2.15;;;;;;;13.05;60.28;100194.53;6184827;23;20025;-60
2022/12/20 01:13:40;;;;;;;4.05;2.30;;;;;;;13.09;59.28;100189.91;6185237;23;20025;-60
2022/12/20 01:16:11;;;;;;;3.38;2.17;;;;;;;13.10;59.39;100199.09;6185371;23;20469;-61
2022/12/20 01:18:39;;;;;;;3.60;2.13;;;;;;;13.02;59.85;100208.34;6185573;23;20403;-61
2022/12/20 01:21:09;;;;;;;3.03;1.75;;;;;;;12.98;59.74;100197.84;6184925;23;20350;-61
2022/12/20 01:23:36;;;;;;;4.57;2.55;;;;;;;13.13;59.11;100193.66;6184205;23;20045;-60
2022/12/20 01:26:07;;;;;;;3.10;2.00;;;;;;;13.13;59.87;100206.84;6185675;23;20032;-61
2022/12/20 01:28:37;;;;;;;3.40;1.90;;;;;;;13.29;58.91;100219.09;6185440;23;20036;-61
2022/12/20 01:31:06;;;;;;;4.45;2.20;;;;;;;13.16;60.10;100225.72;6184540;23;20112;-61
2022/12/20 01:33:34;;;;;;;3.42;2.28;;;;;;;13.07;60.52;100222.16;6185544;23;20025;-61
2022/12/20 01:36:04;;;;;;;2.97;1.90;;;;;;;13.12;60.06;100220.00;6185548;23;20438;-61
2022/12/20 01:38:32;;;;;;;2.88;2.00;;;;;;;13.16;59.99;100220.94;6184725;23;20029;-61
2022/12/20 01:41:00;;;;;;;3.10;2.00;;;;;;;13.06;59.82;100220.50;6184410;23;20025;-61
2022/12/20 01:43:48;;;;;;;3.90;2.00;;;;;;;13.20;60.07;100195.91;6184643;23;20025;-61
2022/12/20 01:46:15;;;;;;;2.90;2.10;;;;;;;13.06;59.91;100209.31;6184551;23;20025;-61
2022/12/20 01:48:49;;;;;;;3.75;2.00;;;;;;;13.08;60.46;100212.59;6184598;23;20338;-61
2022/12/20 01:51:17;;;;;;;3.92;2.22;;;;;;;12.97;60.81;100201.78;6185424;23;20085;-61
2022/12/20 01:53:45;;;;;;;3.67;2.50;;;;;;;13.04;61.39;100203.25;6184430;23;20328;-61
2022/12/20 01:56:13;;;;;;;6.13;2.60;;;;;;;12.87;64.33;100202.22;6184766;23;20033;-61
2022/12/20 01:58:41;;;;;;;2.80;2.03;;;;;;;12.90;62.67;100181.94;6184535;23;20052;-60
2022/12/20 02:01:10;;;;;;;4.32;2.10;;;;;;;12.85;63.13;100182.16;6184972;23;20445;-61
2022/12/20 02:03:38;;;;;;;3.10;2.13;;;;;;;12.68;62.42;100199.00;6184909;23;20029;-61
2022/12/20 02:06:16;;;;;;;3.35;2.28;;;;;;;12.74;63.42;100190.06;6184160;23;20024;-61
2022/12/20 02:08:46;;;;;;;4.07;2.22;;;;;;;12.75;63.18;100182.53;6184212;23;20033;-61
2022/12/20 02:11:29;;;;;;;5.25;2.33;;;;;;;12.76;63.00;100171.00;6184195;23;20032;-61
2022/12/20 02:14:09;;;;;;;3.53;1.92;;;;;;;12.71;62.62;100175.97;6185158;23;20036;-60
2022/12/20 02:16:45;;;;;;;4.57;2.30;;;;;;;12.74;62.04;100155.72;6184756;23;20028;-61
2022/12/20 02:19:30;;;;;;;3.97;2.20;;;;;;;12.76;62.04;100167.38;6184485;23;20036;-61
2022/12/20 02:22:11;;;;;;;3.42;2.20;;;;;;;12.77;61.35;100169.03;6185028;23;20029;-60
2022/12/20 02:24:56;;;;;;;3.55;2.22;;;;;;;12.72;61.16;100170.03;6184521;23;20025;-61
2022/12/20 02:27:35;;;;;;;3.88;2.15;;;;;;;12.71;61.36;100165.63;6184356;23;20025;-61
2022/12/20 02:30:14;;;;;;;3.58;2.20;;;;;;;12.77;61.73;100174.63;6184708;23;20025;-60
2022/12/20 02:32:49;;;;;;;2.88;2.08;;;;;;;12.70;61.83;100144.41;6185324;23;20032;-61
2022/12/20 02:35:22;;;;;;;3.45;2.38;;;;;;;12.74;61.05;100158.53;6184509;23;20318;-60
2022/12/20 02:37:52;;;;;;;3.38;2.45;;;;;;;12.61;61.89;100140.03;6184237;23;20033;-60
2022/12/20 02:40:23;;;;;;;3.38;2.35;;;;;;;12.66;62.15;100131.44;6183435;23;20032;-60
2022/12/20 02:42:55;;;;;;;4.95;2.60;;;;;;;12.57;61.49;100139.88;6184469;23;20025;-60
2022/12/20 02:45:26;;;;;;;3.95;2.38;;;;;;;12.47;61.96;100138.25;6184134;23;20036;-60
2022/12/20 02:47:59;;;;;;;3.50;2.42;;;;;;;12.52;61.83;100142.88;6184372;23;20036;-60
2022/12/20 02:50:30;;;;;;;4.53;2.42;;;;;;;12.61;61.81;100128.84;6184542;23;20032;-61
2022/12/20 02:52:59;;;;;;;3.35;2.40;;;;;;;12.69;62.15;100144.75;6184723;23;20029;-60
2022/12/20 02:55:35;;;;;;;3.85;2.88;;;;;;;12.68;61.87;100131.91;6183314;23;20131;-61
2022/12/20 02:58:09;;;;;;;3.58;2.45;;;;;;;12.66;62.18;100126.69;6184015;23;20028;-61
2022/12/20 03:00:46;;;;;;;3.70;2.53;;;;;;;12.70;61.62;100101.66;6183903;23;20029;-61
2022/12/20 03:03:23;;;;;;;3.72;2.60;;;;;;;12.61;61.46;100118.50;6184393;23;20025;-60
2022/12/20 03:05:53;;;;;;;3.30;2.10;;;;;;;12.67;61.75;100135.88;6181503;23;20025;-61
2022/12/20 03:08:22;;;;;;;5.28;2.35;;;;;;;12.75;61.24;100129.44;6185022;23;20457;-61
2022/12/20 03:10:51;;;;;;;3.05;2.40;;;;;;;12.68;62.45;100120.75;6182472;23;20029;-61
2022/12/20 03:13:18;;;;;;;4.22;2.63;;;;;;;12.77;62.14;100125.13;6184072;23;20029;-61
2022/12/20 03:15:46;;;;;;;4.10;2.70;;;;;;;12.70;62.26;100112.84;6183931;23;20029;-61
2022/12/20 03:18:14;;;;;;;4.50;2.65;;;;;;;12.76;61.23;100122.69;6184476;23;20029;-61
2022/12/20 03:20:42;;;;;;;4.20;2.55;;;;;;;12.66;61.60;100134.22;6183572;23;20117;-60
2022/12/20 03:23:10;;;;;;;4.30;2.65;;;;;;;12.62;62.60;100148.09;6184526;23;20312;-61
2022/12/20 03:25:37;;;;;;;5.28;3.08;;;;;;;12.71;62.48;100162.00;6183354;23;20350;-61
2022/12/20 03:28:04;;;;;;;5.70;2.90;;;;;;;12.59;62.72;100162.69;6184609;23;20025;-61
2022/12/20 03:30:32;;;;;;;3.72;2.85;;;;;;;12.35;63.40;100154.94;6183933;23;20450;-61
2022/12/20 03:33:00;;;;;;;3.28;2.40;;;;;;;12.49;62.55;100163.88;6184175;23;20032;-61
2022/12/20 03:35:28;;;;;;;4.47;2.53;;;;;;;12.46;63.06;100164.56;6183959;23;20029;-60
2022/12/20 03:37:56;;;;;;;5.60;2.78;;;;;;;12.31;64.17;100159.53;6184041;23;20032;-59
2022/12/20 03:40:23;;;;;;;4.13;2.95;;;;;;;12.37;63.18;100161.81;6182813;23;20029;-60
2022/12/20 03:42:50;;;;;;;4.65;2.80;;;;;;;12.44;63.44;100177.25;6184250;23;20036;-60
2022/12/20 03:45:18;;;;;;;3.88;2.60;;;;;;;12.40;64.75;100151.94;6184347;23;20447;-60
2022/12/20 03:47:45;;;;;;;5.25;2.95;;;;;;;12.38;65.31;100157.03;6184618;23;20025;-60
2022/12/20 03:50:14;;;;;;;3.65;2.75;;;;;;;12.31;64.83;100140.81;6183576;23;20029;-61
2022/12/20 03:52:41;;;;;;;4.20;2.88;;;;;;;12.29;64.92;100131.13;6183967;23;20084;-61
2022/12/20 03:55:11;;;;;;;5.53;2.70;;;;;;;12.13;65.43;100164.34;6183732;23;20029;-60
2022/12/20 03:57:39;;;;;;;2.95;2.40;;;;;;;12.17;65.51;100146.59;6184204;23;20473;-61
2022/12/20 04:00:07;;;;;;;3.95;2.80;;;;;;;12.12;64.81;100141.19;6183037;23;20036;-59
2022/12/20 04:02:34;;;;;;;3.47;2.33;;;;;;;12.15;65.01;100148.91;6184079;23;20358;-61
2022/12/20 04:05:02;;;;;;;4.75;2.58;;;;;;;12.30;64.07;100155.09;6184210;23;20461;-60
2022/12/20 04:07:30;;;;;;;5.88;2.63;;;;;;;12.34;64.45;100144.91;6184210;23;20032;-60
2022/12/20 04:09:58;;;;;;;5.55;2.75;;;;;;;12.38;63.97;100129.09;6184274;23;20025;-61
2022/12/20 04:12:25;;;;;;;3.53;2.47;;;;;;;12.34;64.81;100134.53;6185975;23;20029;-61
2022/12/20 04:14:52;;;;;;;3.60;2.58;;;;;;;12.36;64.22;100123.03;6185977;23;20350;-60
2022/12/20 04:17:19;;;;;;;6.82;2.70;;;;;;;12.34;64.53;100128.13;6185798;23;20025;-60
2022/12/20 04:19:47;;;;;;;4.57;2.70;;;;;;;12.33;64.11;100126.53;6184922;23;20450;-60
2022/12/20 04:22:14;;;;;;;4.72;2.70;;;;;;;12.41;64.45;100131.25;6186190;23;20085;-61
2022/12/20 04:24:43;;;;;;;5.57;2.92;;;;;;;12.17;65.28;100123.44;6185471;23;20033;-61
2022/12/20 04:27:10;;;;;;;4.53;3.08;;;;;;;12.27;65.28;100123.06;6185694;23;20032;-60
2022/12/20 04:29:37;;;;;;;4.40;2.70;;;;;;;12.25;66.50;100141.31;6186098;23;20434;-61
2022/12/20 04:32:05;;;;;;;3.97;3.03;;;;;;;12.14;68.07;100124.94;6185749;23;20028;-61
2022/12/20 04:34:32;;;;;;;8.30;4.10;;;;;;;11.97;68.77;100134.19;6186434;23;20442;-61
2022/12/20 04:36:59;;;;;;;5.00;3.13;;;;;;;11.76;70.91;100128.44;6186055;23;20025;-61
2022/12/20 04:39:27;;;;;;;5.80;3.67;;;;;;;11.59;71.32;100145.22;6184922;23;20036;-61
2022/12/20 04:41:55;;;;;;;5.43;3.97;;;;;;;11.54;72.83;100121.06;6185595;23;20446;-59
2022/12/20 04:44:23;;;;;;;6.25;3.78;;;;;;;11.60;72.71;100132.91;6184975;23;20036;-59
2022/12/20 04:46:50;;;;;;;7.13;3.60;;;;;;;11.50;72.02;100127.66;6185731;23;20025;-59
2022/12/20 04:49:17;;;;;;;6.30;4.00;;;;;;;11.38;72.88;100117.16;6185366;23;20457;-59
2022/12/20 04:51:44;;;;;;;6.82;4.30;;;;;;;11.22;74.17;100127.19;6184944;23;20029;-60
2022/12/20 04:54:12;;;;;;;6.30;4.60;;;;;;;11.07;76.81;100136.84;6184726;23;20054;-59
2022/12/20 04:56:40;;;;;;;7.30;4.43;;;;;;;10.99;77.58;100134.84;6185607;23;20036;-60
2022/12/20 04:59:09;;;;;;;8.38;4.53;;;;;;;10.93;77.85;100132.22;6185385;23;20029;-59
2022/12/20 05:01:36;;;;;;;;;;;;;;;10.84;78.98;100116.63;6186381;23;20473;-59
2022/12/20 05:04:04;;;;;;;7.55;4.20;;;;;;;10.70;78.77;100128.72;6185653;23;19932;-60
2022/12/20 05:06:40;;;;;;;9.95;4.78;;;;;;;10.33;82.11;100147.59;6185453;23;20024;-59
2022/12/20 05:09:07;;;;;;;9.10;5.35;;;;;;;9.94;87.89;100134.44;6185219;23;20029;-59
2022/12/20 05:11:34;;;;;;;10.45;5.53;;;;;;;9.93;89.37;100136.41;6185124;23;20454;-59
2022/12/20 05:14:01;;;;;;;10.88;5.80;;;;;;;9.88;90.90;100135.72;6185604;23;20025;-60
2022/12/20 05:16:30;;;;;;;8.70;6.15;;;;;;;9.91;92.50;100135.06;6185202;23;20028;-60
2022/12/20 05:18:57;;;;;;;10.20;6.38;;;;;;;9.69;93.06;100145.06;6185694;23;20025;-61
2022/12/20 05:26:56;;;;;;;8.07;5.43;;;;;;;9.82;92.28;100125.84;6194042;23;20036;-62
2022/12/20 05:29:24;;;;;;;11.90;6.93;;;;;;;9.80;92.16;100120.59;6185283;23;20029;-62
2022/12/20 05:31:52;;;;;;;7.30;5.65;;;;;;;9.90;91.42;100123.13;6184053;23;20032;-61
2022/12/20 05:34:19;;;;;;;8.30;5.63;;;;;;;10.06;89.93;100120.75;6185306;23;20029;-61
2022/12/20 05:36:47;;;;;;;9.45;5.57;;;;;;;10.18;88.78;100105.41;6184508;23;20032;-61
2022/12/20 05:39:14;;;;;;;7.70;4.85;;;;;;;10.33;86.86;100097.50;6183281;23;20366;-61
2022/12/20 05:41:41;;;;;;;8.88;5.35;;;;;;;10.49;87.09;100103.44;6184267;23;20028;-61
2022/12/20 05:44:09;;;;;;;9.30;6.10;;;;;;;10.60;85.49;100089.22;6185379;23;20370;-61
2022/12/20 05:46:36;;;;;;;6.43;4.78;;;;;;;10.61;84.08;100097.25;6184625;23;20033;-61
2022/12/20 05:49:04;;;;;;;8.65;5.63;;;;;;;10.74;84.29;100085.13;6185508;23;20025;-61
2022/12/20 05:51:32;;;;;;;8.90;4.50;;;;;;;10.75;82.97;100080.38;6183320;23;20055;-61
2022/12/20 05:53:59;;;;;;;6.22;4.65;;;;;;;10.81;82.19;100081.06;6184795;23;20051;-61
2022/12/20 05:56:27;;;;;;;7.80;4.75;;;;;;;10.86;81.38;100081.72;6184612;23;20039;-61
2022/12/20 05:58:54;;;;;;;7.20;4.80;;;;;;;10.80;80.82;100073.84;6185823;23;20052;-62
2022/12/20 06:01:22;;;;;;;7.85;4.55;;;;;;;10.87;80.84;100071.41;6184183;23;20343;-61
2022/12/20 06:03:49;;;;;;;7.10;4.55;;;;;;;10.89;80.28;100075.50;6184781;23;20028;-61
2022/12/20 06:06:18;;;;;;;5.72;3.65;;;;;;;10.84;79.57;100086.81;6184897;23;20025;-61
2022/12/20 06:08:45;;;;;;;6.20;3.90;;;;;;;10.94;79.09;100077.28;6184465;23;20036;-61
2022/12/20 06:11:12;;;;;;;6.30;4.20;;;;;;;11.05;78.47;100080.59;6184568;23;20032;-61
2022/12/20 06:13:40;;;;;;;8.23;3.78;;;;;;;10.99;77.79;100077.16;6184284;23;20338;-61
2022/12/20 06:16:07;;;;;;;5.47;4.25;;;;;;;10.99;78.41;100076.34;6185241;23;20075;-61
2022/12/20 06:18:34;;;;;;;6.38;4.50;;;;;;;11.08;78.27;100068.78;6184178;23;20342;-61
2022/12/20 06:21:02;;;;;;;5.63;3.88;;;;;;;11.07;77.88;100047.66;6184506;23;20025;-61
2022/12/20 06:23:30;;;;;;;6.80;3.83;;;;;;;11.15;77.29;100055.19;6184297;23;20029;-61
2022/12/20 06:25:58;;;;;;;7.40;3.80;;;;;;;11.17;76.73;100050.06;6184530;23;20025;-61
2022/12/20 06:28:25;;;;;;;4.70;3.25;;;;;;;11.13;75.47;100051.91;6184461;23;20024;-61
2022/12/20 06:30:53;;;;;;;4.20;2.88;;;;;;;11.15;74.73;100057.97;6184130;23;20029;-61
2022/12/20 06:33:21;;;;;;;5.72;3.42;;;;;;;11.24;74.99;100052.41;6184516;23;20028;-62
2022/12/20 06:35:52;;;;;;;4.25;2.90;;;;;;;11.28;74.68;100059.75;6184618;23;20454;-61
2022/12/20 06:38:19;;;;;;;6.65;3.47;;;;;;;11.30;75.75;100071.41;6183704;23;20032;-60
2022/12/20 06:40:48;;;;;;;4.15;2.95;;;;;;;11.42;73.95;100073.50;6184193;23;20028;-60
2022/12/20 06:43:16;;;;;;;5.13;2.83;;;;;;;11.41;73.60;100065.50;6184325;23;20033;-60
2022/12/20 06:45:43;;;;;;;4.65;3.03;;;;;;;11.43;74.08;100057.63;6184236;23;20339;-60
2022/12/20 06:48:11;;;;;;;3.85;2.67;;;;;;;11.51;73.17;100059.56;6183968;23;20564;-60
2022/12/20 06:50:39;;;;;;;6.05;2.80;;;;;;;11.63;73.17;100061.66;6184172;23;20029;-60
2022/12/20 06:53:07;;;;;;;5.05;3.00;;;;;;;11.62;73.23;100049.69;6183776;23;20097;-59
2022/12/20 06:55:34;;;;;;;5.53;2.75;;;;;;;11.69;72.14;100040.81;6183145;23;20036;-61
2022/12/20 06:58:03;;;;;;;5.32;3.15;;;;;;;11.55;71.38;100047.41;6183776;23;20020;-60
2022/12/20 07:00:30;;;;;;;3.53;2.70;;;;;;;11.60;72.50;100040.84;6183018;23;20025;-61
2022/12/20 07:02:58;;;;;;;4.40;2.97;;;;;;;11.66;71.67;100036.72;6184405;23;20955;-59
2022/12/20 07:05:26;;;;;;;4.78;2.88;;;;;;;11.73;72.19;100027.84;6184316;23;20029;-60
2022/12/20 07:07:53;;;;;;;5.05;2.50;;;;;;;11.68;71.55;100025.25;6184555;23;20291;-60
2022/12/20 07:10:20;;;;;;;4.03;2.53;;;;;;;11.71;71.54;100016.19;6182773;23;20033;-60
2022/12/20 07:12:48;;;;;;;4.85;2.58;;;;;;;11.67;70.38;100041.13;6184022;23;20036;-60
2022/12/20 07:15:16;;;;;;;4.13;2.80;;;;;;;11.70;71.22;100018.16;6184306;23;20025;-60
2022/12/20 07:17:44;;;;;;;4.05;2.50;;;;;;;11.68;70.36;100040.00;6184925;23;20036;-60
2022/12/20 07:20:12;;;;;;;4.35;2.47;;;;;;;11.66;70.48;100027.53;6182701;23;20361;-60
2022/12/20 07:22:39;;;;;;;5.47;2.83;;;;;;;11.76;70.25;100028.00;6184355;23;20029;-60
2022/12/20 07:25:06;;;;;;;6.05;2.88;;;;;;;11.76;70.18;100028.00;6182889;23;20028;-60
2022/12/20 07:27:34;;;;;;;4.28;2.67;;;;;;;11.83;69.92;100037.84;6184056;23;20455;-60
2022/12/20 07:30:01;;;;;;;5.20;2.70;;;;;;;11.75;69.82;100022.75;6183836;23;20021;-60
2022/12/20 07:32:29;;;;;;;5.40;2.78;;;;;;;11.85;70.41;100027.16;6182312;23;20032;-61
2022/12/20 07:34:57;;;;;;;5.00;2.75;;;;;;;11.95;70.42;100013.69;6183374;23;20458;-60
2022/12/20 07:37:24;;;;;;;4.57;2.63;;;;;;;11.82;69.26;100020.25;6182987;23;20040;-60
2022/12/20 07:39:51;;;;;;;5.45;2.95;;;;;;;11.96;69.38;100022.84;6180362;23;20025;-60
2022/12/20 07:42:18;;;;;;;3.78;2.63;;;;;;;12.02;69.83;100015.94;6183938;23;20029;-60
2022/12/20 07:44:52;;;;;;;5.25;2.80;;;;;;;12.05;69.73;100006.88;6183508;23;20052;-60
2022/12/20 07:47:19;;;;;;;4.25;2.80;;;;;;;12.07;69.58;100018.53;6185813;23;20033;-61
2022/12/20 07:49:49;;;;;;;5.07;2.67;;;;;;;12.09;68.57;100010.63;6182864;23;20036;-60
2022/12/20 07:52:17;;;;;;;;;;;;;;;11.97;68.55;100025.31;6186234;23;20045;-60
2022/12/20 07:54:49;;;;;;;5.05;2.67;;;;;;;12.03;68.72;100009.19;6183259;23;19920;-60
2022/12/20 07:57:22;;;;;;;3.92;2.50;;;;;;;11.99;68.61;100030.59;6184935;23;20033;-60
2022/12/20 07:59:54;;;;;;;4.97;2.60;;;;;;;12.11;68.19;100010.31;6184723;23;20028;-60
2022/12/20 08:02:25;;;;;;;3.97;2.58;;;;;;;12.03;67.93;100025.94;6183209;23;20029;-60
2022/12/20 08:04:56;;;;;;;5.05;3.03;;;;;;;12.05;67.71;100026.41;6183826;23;20029;-58
2022/12/20 08:07:24;;;;;;;5.88;2.80;;;;;;;12.15;67.89;100008.47;6183913;23;20444;-59
2022/12/20 08:09:51;;;;;;;3.67;2.88;;;;;;;12.22;67.19;100019.13;6183290;23;20355;-60
2022/12/20 08:12:20;;;;;;;3.95;2.65;;;;;;;12.41;67.12;99999.97;6182455;23;20029;-59
2022/12/20 08:14:51;;;;;;;4.20;2.38;;;;;;;12.52;66.52;100012.38;6184552;23;20125;-59
2022/12/20 08:17:18;;;;;;;5.07;2.50;;;;;;;12.47;65.45;100009.75;6184544;23;20124;-60
2022/12/20 08:19:46;;;;;;;4.93;2.78;;;;;;;12.48;66.81;100002.22;6184814;23;20025;-60
2022/12/20 08:22:15;;;;;;;4.03;2.22;;;;;;;12.56;65.72;100018.13;6183502;23;20330;-59
2022/12/20 08:24:42;;;;;;;4.03;2.50;;;;;;;12.69;66.24;99997.47;6185772;23;20035;-59
2022/12/20 08:27:09;;;;;;;4.55;2.42;;;;;;;13.06;64.96;100016.38;6183668;23;20359;-59
2022/12/20 08:29:36;;;;;;;3.28;2.30;;;;;;;13.04;63.14;100021.50;6182302;23;20021;-59
2022/12/20 08:32:04;;;;;;;4.22;2.55;;;;;;;12.95;64.72;100025.19;6184438;23;20048;-59
2022/12/20 08:34:31;;;;;;;4.55;2.30;;;;;;;12.73;63.74;100017.97;6184047;23;20036;-59
2022/12/20 08:36:59;;;;;;;3.75;2.42;;;;;;;12.60;64.00;100024.66;6181280;23;20033;-59
2022/12/20 08:39:28;;;;;;;3.08;2.13;;;;;;;12.65;63.93;100024.44;6183415;23;20453;-59
2022/12/20 08:41:55;;;;;;;3.08;2.65;;;;;;;12.72;63.54;100018.31;6183793;23;20127;-58
2022/12/20 08:44:22;;;;;;;3.85;2.22;;;;;;;12.73;63.98;100006.00;6185475;23;20025;-58
2022/12/20 08:46:49;;;;;;;2.88;1.98;;;;;;;12.89;64.13;99993.03;6185256;23;20036;-59
2022/12/20 08:49:17;;;;;;;3.08;2.22;;;;;;;13.07;63.41;99984.50;6185458;23;20334;-59
2022/12/20 08:51:44;;;;;;;5.55;2.38;;;;;;;13.13;63.94;99988.72;6184986;23;20358;-58
2022/12/20 08:54:11;;;;;;;3.30;2.17;;;;;;;13.29;63.82;99994.50;6184880;23;20028;-58
2022/12/20 08:56:40;;;;;;;3.60;2.20;;;;;;;13.38;63.29;99993.25;6185000;23;20029;-58
2022/12/20 08:59:07;;;;;;;3.85;2.30;;;;;;;13.18;63.86;99989.28;6185510;23;20028;-68
2022/12/20 09:01:40;;;;;;;4.32;2.53;;;;;;;13.04;62.79;99987.97;6185491;23;20085;-68
2022/12/20 09:04:10;;;;;;;4.22;2.30;;;;;;;13.60;63.40;99977.22;6184813;23;20036;-67
2022/12/20 09:06:37;;;;;;;12.93;2.85;;;;;;;13.61;62.91;99995.66;6185575;23;20025;-66
2022/12/20 09:09:05;;;;;;;5.80;2.47;;;;;;;13.48;62.86;99992.00;6185162;23;20438;-65
2022/12/20 09:11:33;;;;;;;7.95;2.45;;;;;;;13.51;63.43;99996.09;6185095;23;20036;-68
2022/12/20 09:14:02;;;;;;;5.05;2.25;;;;;;;13.55;63.46;99994.22;6185309;23;20411;-69
2022/12/20 09:16:31;;;;;;;3.65;2.10;;;;;;;13.42;62.59;99992.56;6185012;23;20033;-68
2022/12/20 09:19:00;;;;;;;5.07;2.55;;;;;;;13.01;62.03;99992.25;6185426;23;20029;-67
2022/12/20 09:21:27;;;;;;;5.15;2.67;;;;;;;13.19;62.74;99996.53;6185924;23;20054;-66
2022/12/20 09:23:56;;;;;;;3.85;2.45;;;;;;;12.93;62.61;99976.38;6185405;23;20036;-67
2022/12/20 09:26:24;;;;;;;3.22;2.33;;;;;;;12.85;62.80;99960.50;6184887;23;20512;-69
2022/12/20 09:28:52;;;;;;;3.72;2.08;;;;;;;12.95;63.65;99974.88;6185318;23;20029;-67
2022/12/20 09:31:24;;;;;;;2.78;1.67;;;;;;;13.03;63.45;99969.56;6184756;23;20028;-68
2022/12/20 09:33:54;;;;;;;3.78;2.55;;;;;;;13.10;63.28;100003.38;6185251;23;20415;-65
2022/12/20 09:36:23;;;;;;;2.83;2.00;;;;;;;13.26;65.43;99979.19;6185076;23;20052;-69
2022/12/20 09:38:50;;;;;;;4.45;2.10;;;;;;;13.15;64.89;99975.22;6185182;23;20029;-69
2022/12/20 09:41:31;;;;;;;4.55;2.30;;;;;;;12.97;64.50;99980.94;6185350;23;20032;-69
2022/12/20 09:44:03;;;;;;;5.30;2.47;;;;;;;13.07;65.78;99976.09;6185423;23;20025;-70
2022/12/20 09:46:33;;;;;;;4.07;2.20;;;;;;;12.85;64.47;99980.91;6184894;23;20029;-69
2022/12/20 09:49:02;;;;;;;3.05;1.80;;;;;;;12.98;65.88;99993.78;6184278;23;20032;-70
2022/12/20 09:52:05;;;;;;;4.23;2.20;;;;;;;13.02;63.72;99979.09;6185284;23;20353;-69
2022/12/20 09:54:40;;;;;;;2.80;1.90;;;;;;;13.08;64.50;99983.31;6185757;23;20446;-69
2022/12/20 09:57:18;;;;;;;3.33;2.05;;;;;;;13.04;64.05;99979.56;6185008;23;20029;-69
2022/12/20 09:59:45;;;;;;;3.65;2.00;;;;;;;12.93;64.17;99995.94;6185657;23;20025;-70
2022/12/20 10:02:22;;;;;;;5.35;2.60;;;;;;;12.99;63.66;99984.22;6184815;23;20024;-69
2022/12/20 10:04:49;;;;;;;2.58;1.85;;;;;;;13.02;64.85;99984.69;6185287;23;20028;-69
2022/12/20 10:07:27;;;;;;;3.65;2.13;;;;;;;13.12;63.33;99984.25;6184849;23;20411;-69
2022/12/20 10:10:10;;;;;;;3.13;1.73;;;;;;;13.07;63.27;99993.69;6185268;23;20032;-70
2022/12/20 10:12:49;;;;;;;10.05;2.30;;;;;;;13.10;62.61;99992.19;6185419;23;20029;-69
2022/12/20 10:15:21;;;;;;;3.35;2.15;;;;;;;13.15;62.48;99990.00;6184823;23;20028;-69
2022/12/20 10:18:09;;;;;;;7.35;2.50;;;;;;;13.27;63.25;99980.00;6184881;23;20025;-69
2022/12/20 10:20:45;;;;;;;4.00;2.47;;;;;;;13.86;61.56;99974.09;6185550;23;20024;-69
2022/12/20 10:23:22;;;;;;;4.30;2.00;;;;;;;15.05;59.77;99977.78;6184789;23;20033;-70
2022/12/20 10:25:53;;;;;;;3.08;1.90;;;;;;;15.09;58.26;99959.06;6185108;23;20029;-69
2022/12/20 10:28:26;;;;;;;5.22;1.88;;;;;;;14.30;58.66;99953.88;6184640;23;20029;-68
2022/12/20 10:30:53;;;;;;;2.83;1.90;;;;;;;14.72;59.92;99948.81;6184572;23;20025;-69
2022/12/20 10:33:24;;;;;;;2.65;1.83;;;;;;;15.16;56.70;99946.06;6185305;23;20029;-61
2022/12/20 10:36:17;;;;;;;3.95;2.00;;;;;;;14.52;58.26;99995.41;6184395;23;20025;-62
2022/12/20 10:38:46;;;;;;;3.15;2.35;;;;;;;14.24;59.63;99941.28;6154895;23;20451;-61
2022/12/20 10:41:16;;;;;;;3.27;1.97;;;;;;;14.54;59.89;99939.84;6155097;23;20336;-68
2022/12/20 10:43:49;;;;;;;3.58;2.28;;;;;;;14.88;59.10;99929.22;6155533;23;20025;-67
2022/12/20 10:46:16;;;;;;;3.88;2.53;;;;;;;14.63;57.91;99934.13;6155359;23;20029;-68
2022/12/20 10:48:47;;;;;;;2.42;1.73;;;;;;;14.72;58.11;99903.97;6154786;23;20029;-67
2022/12/20 10:51:17;;;;;;;4.03;1.75;;;;;;;15.30;57.29;99906.34;6154456;23;20021;-66
2022/12/20 10:53:54;;;;;;;2.30;1.50;;;;;;;14.97;57.79;99901.03;6154894;23;20036;-66
2022/12/20 10:56:26;;;;;;;3.55;1.88;;;;;;;14.63;58.20;99911.69;6155077;23;20029;-66
2022/12/20 10:58:57;;;;;;;2.70;1.60;;;;;;;14.18;60.02;99907.13;6154971;23;20466;-67
2022/12/20 11:01:29;;;;;;;4.28;1.92;;;;;;;14.34;60.51;99887.56;6154708;23;20431;-66
2022/12/20 11:04:03;;;;;;;2.63;1.70;;;;;;;14.34;58.64;99896.81;6154867;23;20033;-67
2022/12/20 11:06:41;;;;;;;2.45;1.80;;;;;;;14.32;59.07;99889.91;6154869;23;20029;-65
2022/12/20 11:09:28;;;;;;;2.55;1.70;;;;;;;14.39;60.44;99878.94;6155234;23;20026;-66
2022/12/20 11:12:04;;;;;;;3.03;2.05;;;;;;;14.48;59.20;99904.81;6154695;23;20033;-67
2022/12/20 11:14:34;;;;;;;2.95;2.03;;;;;;;15.63;55.79;99889.16;6154950;23;20435;-66
2022/12/20 11:17:06;;;;;;;4.45;2.15;;;;;;;15.57;56.66;99892.59;6154702;23;20458;-66
2022/12/20 11:19:55;;;;;;;6.22;2.20;;;;;;;16.66;53.26;99885.50;6155116;23;20029;-66
2022/12/20 11:22:36;;;;;;;2.55;1.50;;;;;;;15.25;56.45;99864.53;6154618;23;20033;-65
2022/12/20 11:25:20;;;;;;;3.15;1.65;;;;;;;14.86;57.81;99869.88;6154896;23;20032;-65
2022/12/20 11:27:58;;;;;;;2.50;1.85;;;;;;;15.31;57.82;99865.91;6154642;23;20030;-65
2022/12/20 11:30:32;;;;;;;2.70;1.95;;;;;;;15.50;55.73;99858.75;6154546;23;20095;-67
2022/12/20 11:33:15;;;;;;;3.63;2.20;;;;;;;15.16;56.31;99889.97;6154279;23;20443;-65
2022/12/20 11:35:53;;;;;;;4.05;2.00;;;;;;;15.14;56.70;99888.66;6154471;23;20029;-65
2022/12/20 11:38:40;;;;;;;3.05;2.20;;;;;;;15.86;54.82;99887.72;6154594;23;20029;-65
2022/12/20 11:41:20;;;;;;;2.22;1.65;;;;;;;15.33;55.50;99871.13;6153781;23;20033;-65
2022/12/20 11:44:09;;;;;;;4.50;2.00;;;;;;;15.26;56.25;99846.50;6154762;23;20431;-64
2022/12/20 11:46:51;;;;;;;3.45;1.70;;;;;;;14.98;57.11;99867.03;6154688;23;20033;-64
2022/12/20 11:49:44;;;;;;;3.50;1.90;;;;;;;14.98;58.14;99857.81;6154734;23;20339;-64